This is the latest recevied weather packets stored in our database for station/object KQ4EHY-1. If no packets are shown the sender has not sent any weather packets the latest 1 day(s).
| Time | Temp. | Humidity | Pressure | Rain* | Wind** | Luminosity | Snow |
|---|---|---|---|---|---|---|---|
| 1778084469 | 23.89° C | 66% | 1010.9 hPa | 0 mm | 0.45 m/s, 8° | - | - |
| 1778084109 | 24.44° C | 64% | 1011.2 hPa | 0 mm | 0 m/s | - | - |
| 1778083389 | 24.44° C | 62% | 1011 hPa | 0 mm | 0.45 m/s, 347° | - | - |
| 1778081409 | 23.89° C | 64% | 1010.8 hPa | 0 mm | 0.45 m/s, 338° | - | - |
| 1778081109 | 23.33° C | 65% | 1010.7 hPa | 0 mm | 0.45 m/s, 72° | - | - |
| 1778081049 | 23.33° C | 65% | 1010.9 hPa | 0 mm | 0.89 m/s, 320° | - | - |
| 1778079910 | 23.33° C | 68% | 1010.8 hPa | 0 mm | 0.89 m/s, 242° | - | - |
| 1778078470 | 22.78° C | 71% | 1010.8 hPa | 0 mm | 0.45 m/s, 342° | - | - |
| 1778078229 | 22.22° C | 71% | 1010.8 hPa | 0 mm | 0.45 m/s, 333° | - | - |
| 1778078049 | 22.78° C | 69% | 1010.4 hPa | 0 mm | 0.89 m/s, 116° | - | - |
| 1778077929 | 22.78° C | 69% | 1010.4 hPa | 0 mm | 0.89 m/s, 116° | - | - |
| 1778077389 | 22.22° C | 73% | 1010.2 hPa | 0 mm | 0 m/s | - | - |
| 1778077269 | 22.22° C | 73% | 1010.2 hPa | 0 mm | 0 m/s | - | - |
| 1778076669 | 22.22° C | 72% | 1010.2 hPa | 0 mm | 0.45 m/s, 73° | - | - |
| 1778076610 | 22.22° C | 72% | 1010 hPa | 0 mm | 0 m/s | - | - |
| 1778075769 | 21.11° C | 77% | 1010.4 hPa | 0 mm | 0 m/s | - | - |
| 1778075049 | 20° C | 80% | 1010.2 hPa | 0 mm | 0 m/s | - | - |
| 1778074209 | 19.44° C | 82% | 1010.2 hPa | 0 mm | 0 m/s | - | - |
| 1778073369 | 19.44° C | 83% | 1009.9 hPa | 0 mm | 0 m/s | - | - |
| 1778073309 | 19.44° C | 83% | 1009.9 hPa | 0 mm | 0.45 m/s, 10° | - | - |
| 1778073189 | 19.44° C | 83% | 1009.9 hPa | 0 mm | 0.45 m/s, 10° | - | - |
| 1778071629 | 17.78° C | 85% | 1010.1 hPa | 0 mm | 0 m/s | - | - |
| 1778071509 | 17.78° C | 85% | 1010.2 hPa | 0 mm | 0 m/s | - | - |
| 1778071389 | 17.78° C | 85% | 1010.2 hPa | 0 mm | 0 m/s | - | - |
| 1778070909 | 17.78° C | 84% | 1010.2 hPa | 0 mm | 0 m/s | - | - |
* Rain latest hour (hover to see other rain measurements)
** Current wind speed in m/s (hover to see current wind gust speed)